Terminal Aerodrome Forecast
Issued by NWS

Home | Current Version | Previous Version | Text Only | Print | Product List | Glossary Off
Versions: 1 2 3 4 5 6 7 8 9 10 11 12 13 14 15 16 17

000
FTUS43 KFGF 241739
TAFBJI
TAF
KBJI 241739Z 2418/2518 11012KT P6SM OVC140
      TEMPO 2418/2422 -RA
     FM242200 18016KT P6SM OVC040
      TEMPO 2422/2501 -RA OVC025
     FM250200 16006KT P6SM OVC020
     FM250600 29005KT P6SM OVC008=

USA.gov is the U.S. government's official web portal to all federal, state and local government web resources and services.